KTVI/TVI METAR and TAF weather

Enter ICAO airport designator
Station Type Date Time Source
KTVI METAR 2021/05/12 22:35 UTC NOAA

KTVI 122235Z AUTO 33007KT 10SM SCT027 SCT100 25/19 A3006 RMK AO2


Station Type Date Time Source
KTVI Decoded METAR 2021/05/12 22:35 UTC NOAA

Thomasville, GA, United States (KTVI) 30-54-06N 083-52-53W
May 12, 2021 - 06:35 PM EDT / 2021.05.12 2235 UTC
Wind: from the NNW (330 degrees) at 8 MPH (7 KT):0
Visibility: 10 mile(s):0
Sky conditions: partly cloudy
Temperature: 77 F (25 C)
Dew Point: 66 F (19 C)
Relative Humidity: 69%
Pressure (altimeter): 30.06 in. Hg (1017 hPa)
ob: KTVI 122235Z AUTO 33007KT 10SM SCT027 SCT100 25/19 A3006 RMK AO2
cycle: 22

Station Type Date Time Source
KTVI TAF UTC NOAA

Error!

Example: see airport list